sensor_id;sensor_type;location;lat;lon;timestamp;temperature;humidity
71754;DHT22;59593;51.716;7.016;2023-02-28T00:00:23;0.40;99.90
71754;DHT22;59593;51.716;7.016;2023-02-28T00:02:48;0.40;99.90
71754;DHT22;59593;51.716;7.016;2023-02-28T00:05:16;0.40;99.90
71754;DHT22;59593;51.716;7.016;2023-02-28T00:07:42;0.40;99.90
71754;DHT22;59593;51.716;7.016;2023-02-28T00:10:11;0.30;99.90
71754;DHT22;59593;51.716;7.016;2023-02-28T00:12:37;0.40;99.90
71754;DHT22;59593;51.716;7.016;2023-02-28T00:15:06;0.40;99.90
71754;DHT22;59593;51.716;7.016;2023-02-28T00:17:32;0.40;99.90
71754;DHT22;59593;51.716;7.016;2023-02-28T00:19:57;0.40;99.90
71754;DHT22;59593;51.716;7.016;2023-02-28T00:22:35;0.40;99.90
71754;DHT22;59593;51.716;7.016;2023-02-28T00:25:01;0.40;99.90
71754;DHT22;59593;51.716;7.016;2023-02-28T00:27:27;0.40;99.90
71754;DHT22;59593;51.716;7.016;2023-02-28T00:29:52;0.40;99.90
71754;DHT22;59593;51.716;7.016;2023-02-28T00:32:19;0.40;99.90
71754;DHT22;59593;51.716;7.016;2023-02-28T00:34:45;0.50;99.90
71754;DHT22;59593;51.716;7.016;2023-02-28T00:37:11;0.40;99.90
71754;DHT22;59593;51.716;7.016;2023-02-28T00:39:40;0.40;99.90
71754;DHT22;59593;51.716;7.016;2023-02-28T00:42:06;0.40;99.90
71754;DHT22;59593;51.716;7.016;2023-02-28T00:44:32;0.30;99.90
71754;DHT22;59593;51.716;7.016;2023-02-28T00:46:58;0.30;99.90
71754;DHT22;59593;51.716;7.016;2023-02-28T00:49:25;0.30;99.90
71754;DHT22;59593;51.716;7.016;2023-02-28T00:51:53;0.30;99.90
71754;DHT22;59593;51.716;7.016;2023-02-28T00:54:19;0.30;99.90
71754;DHT22;59593;51.716;7.016;2023-02-28T00:56:45;0.40;99.90
71754;DHT22;59593;51.716;7.016;2023-02-28T00:59:12;0.40;99.90
71754;DHT22;59593;51.716;7.016;2023-02-28T01:01:38;0.40;99.90
71754;DHT22;59593;51.716;7.016;2023-02-28T01:04:03;0.40;99.90
71754;DHT22;59593;51.716;7.016;2023-02-28T01:06:30;0.40;99.90
71754;DHT22;59593;51.716;7.016;2023-02-28T01:08:57;0.30;99.90
71754;DHT22;59593;51.716;7.016;2023-02-28T01:11:22;0.30;99.90
71754;DHT22;59593;51.716;7.016;2023-02-28T01:13:48;0.30;99.90
71754;DHT22;59593;51.716;7.016;2023-02-28T01:16:14;0.30;99.90
71754;DHT22;59593;51.716;7.016;2023-02-28T01:18:39;0.20;99.90
71754;DHT22;59593;51.716;7.016;2023-02-28T01:21:11;0.20;99.90
71754;DHT22;59593;51.716;7.016;2023-02-28T01:23:38;0.20;99.90
71754;DHT22;59593;51.716;7.016;2023-02-28T01:26:08;0.20;99.90
71754;DHT22;59593;51.716;7.016;2023-02-28T01:28:35;0.10;99.90
71754;DHT22;59593;51.716;7.016;2023-02-28T01:31:01;0.10;99.90
71754;DHT22;59593;51.716;7.016;2023-02-28T01:33:26;0.00;99.90
71754;DHT22;59593;51.716;7.016;2023-02-28T01:36:04;0.00;99.90
71754;DHT22;59593;51.716;7.016;2023-02-28T01:38:30;0.00;99.90
71754;DHT22;59593;51.716;7.016;2023-02-28T01:40:56;0.00;99.90
71754;DHT22;59593;51.716;7.016;2023-02-28T01:46:19;0.00;99.90
71754;DHT22;59593;51.716;7.016;2023-02-28T01:48:53;0.00;99.90
71754;DHT22;59593;51.716;7.016;2023-02-28T01:51:29;-0.10;99.90
71754;DHT22;59593;51.716;7.016;2023-02-28T01:53:59;0.00;99.90
71754;DHT22;59593;51.716;7.016;2023-02-28T01:56:30;-0.10;99.90
71754;DHT22;59593;51.716;7.016;2023-02-28T01:58:58;-0.10;99.90
71754;DHT22;59593;51.716;7.016;2023-02-28T02:01:29;-0.10;99.90
71754;DHT22;59593;51.716;7.016;2023-02-28T02:03:58;-0.10;99.90
71754;DHT22;59593;51.716;7.016;2023-02-28T02:06:30;-0.10;99.90
71754;DHT22;59593;51.716;7.016;2023-02-28T02:08:56;-0.10;99.90
71754;DHT22;59593;51.716;7.016;2023-02-28T02:11:23;-0.10;99.90
71754;DHT22;59593;51.716;7.016;2023-02-28T02:14:02;-0.10;99.90
71754;DHT22;59593;51.716;7.016;2023-02-28T02:16:59;-0.20;99.90
71754;DHT22;59593;51.716;7.016;2023-02-28T02:36:27;-0.50;99.90
71754;DHT22;59593;51.716;7.016;2023-02-28T02:39:07;-0.50;99.90
71754;DHT22;59593;51.716;7.016;2023-02-28T02:41:52;-0.60;99.90
71754;DHT22;59593;51.716;7.016;2023-02-28T02:44:26;-0.60;99.90
71754;DHT22;59593;51.716;7.016;2023-02-28T02:47:08;-0.60;99.90
71754;DHT22;59593;51.716;7.016;2023-02-28T02:49:37;-0.60;99.90
71754;DHT22;59593;51.716;7.016;2023-02-28T02:52:07;-0.70;99.90
71754;DHT22;59593;51.716;7.016;2023-02-28T02:54:41;-0.70;99.90
71754;DHT22;59593;51.716;7.016;2023-02-28T02:57:13;-0.70;99.90
71754;DHT22;59593;51.716;7.016;2023-02-28T02:59:41;-0.70;99.90
71754;DHT22;59593;51.716;7.016;2023-02-28T03:02:10;-0.80;99.90
71754;DHT22;59593;51.716;7.016;2023-02-28T03:04:42;-0.80;99.90
71754;DHT22;59593;51.716;7.016;2023-02-28T03:07:08;-0.70;99.90
71754;DHT22;59593;51.716;7.016;2023-02-28T03:09:34;-0.70;99.90
71754;DHT22;59593;51.716;7.016;2023-02-28T03:12:04;-0.70;99.90
71754;DHT22;59593;51.716;7.016;2023-02-28T03:20:41;-0.80;99.90
71754;DHT22;59593;51.716;7.016;2023-02-28T03:23:42;-0.90;99.90
71754;DHT22;59593;51.716;7.016;2023-02-28T03:26:18;-0.90;99.90
71754;DHT22;59593;51.716;7.016;2023-02-28T03:31:27;-1.00;99.90
71754;DHT22;59593;51.716;7.016;2023-02-28T03:34:12;-1.00;99.90
71754;DHT22;59593;51.716;7.016;2023-02-28T03:36:42;-1.10;99.90
71754;DHT22;59593;51.716;7.016;2023-02-28T03:39:17;-1.10;99.90
71754;DHT22;59593;51.716;7.016;2023-02-28T03:41:50;-1.10;99.90
71754;DHT22;59593;51.716;7.016;2023-02-28T03:44:21;-1.20;99.90
71754;DHT22;59593;51.716;7.016;2023-02-28T03:46:57;-1.20;99.90
71754;DHT22;59593;51.716;7.016;2023-02-28T03:49:28;-1.20;99.90
71754;DHT22;59593;51.716;7.016;2023-02-28T03:51:58;-1.20;99.90
71754;DHT22;59593;51.716;7.016;2023-02-28T03:54:30;-1.30;99.90
71754;DHT22;59593;51.716;7.016;2023-02-28T03:59:47;-1.30;99.90
71754;DHT22;59593;51.716;7.016;2023-02-28T04:02:14;-1.30;99.90
71754;DHT22;59593;51.716;7.016;2023-02-28T04:04:40;-1.30;99.90
71754;DHT22;59593;51.716;7.016;2023-02-28T04:07:14;-1.20;99.90
71754;DHT22;59593;51.716;7.016;2023-02-28T04:09:40;-1.30;99.90
71754;DHT22;59593;51.716;7.016;2023-02-28T04:12:06;-1.30;99.90
71754;DHT22;59593;51.716;7.016;2023-02-28T04:14:32;-1.30;99.90
71754;DHT22;59593;51.716;7.016;2023-02-28T04:16:58;-1.30;99.90
71754;DHT22;59593;51.716;7.016;2023-02-28T04:19:24;-1.40;99.90
71754;DHT22;59593;51.716;7.016;2023-02-28T04:21:51;-1.40;99.90
71754;DHT22;59593;51.716;7.016;2023-02-28T04:24:19;-1.40;99.90
71754;DHT22;59593;51.716;7.016;2023-02-28T04:26:48;-1.40;99.90
71754;DHT22;59593;51.716;7.016;2023-02-28T04:29:18;-1.40;99.90
71754;DHT22;59593;51.716;7.016;2023-02-28T04:31:44;-1.40;99.90
71754;DHT22;59593;51.716;7.016;2023-02-28T04:34:10;-1.30;99.90
71754;DHT22;59593;51.716;7.016;2023-02-28T04:36:35;-1.20;99.90
71754;DHT22;59593;51.716;7.016;2023-02-28T04:39:01;-1.30;99.90
71754;DHT22;59593;51.716;7.016;2023-02-28T04:41:27;-1.40;99.90
71754;DHT22;59593;51.716;7.016;2023-02-28T04:43:52;-1.50;99.90
71754;DHT22;59593;51.716;7.016;2023-02-28T04:46:18;-1.50;99.90
71754;DHT22;59593;51.716;7.016;2023-02-28T04:48:45;-1.50;99.90
71754;DHT22;59593;51.716;7.016;2023-02-28T04:51:12;-1.50;99.90
71754;DHT22;59593;51.716;7.016;2023-02-28T04:53:40;-1.50;99.90
71754;DHT22;59593;51.716;7.016;2023-02-28T04:56:07;-1.60;99.90
71754;DHT22;59593;51.716;7.016;2023-02-28T04:58:33;-1.50;99.90
71754;DHT22;59593;51.716;7.016;2023-02-28T05:01:04;-1.50;99.90
71754;DHT22;59593;51.716;7.016;2023-02-28T05:03:30;-1.60;99.90
71754;DHT22;59593;51.716;7.016;2023-02-28T05:05:56;-1.50;99.90
71754;DHT22;59593;51.716;7.016;2023-02-28T05:08:21;-1.50;99.90
71754;DHT22;59593;51.716;7.016;2023-02-28T05:10:47;-1.50;99.90
71754;DHT22;59593;51.716;7.016;2023-02-28T05:13:13;-1.50;99.90
71754;DHT22;59593;51.716;7.016;2023-02-28T05:15:39;-1.60;99.90
71754;DHT22;59593;51.716;7.016;2023-02-28T05:18:05;-1.60;99.90
71754;DHT22;59593;51.716;7.016;2023-02-28T05:20:30;-1.60;99.90
71754;DHT22;59593;51.716;7.016;2023-02-28T05:22:57;-1.70;99.90
71754;DHT22;59593;51.716;7.016;2023-02-28T05:25:24;-1.70;99.90
71754;DHT22;59593;51.716;7.016;2023-02-28T05:27:49;-1.70;99.90
71754;DHT22;59593;51.716;7.016;2023-02-28T05:30:15;-1.80;99.90
71754;DHT22;59593;51.716;7.016;2023-02-28T05:32:41;-1.80;99.90
71754;DHT22;59593;51.716;7.016;2023-02-28T05:35:11;-1.80;99.90
71754;DHT22;59593;51.716;7.016;2023-02-28T05:37:38;-1.80;99.90
71754;DHT22;59593;51.716;7.016;2023-02-28T05:40:06;-1.80;99.90
71754;DHT22;59593;51.716;7.016;2023-02-28T05:42:34;-1.90;99.90
71754;DHT22;59593;51.716;7.016;2023-02-28T05:44:59;-1.90;99.90
71754;DHT22;59593;51.716;7.016;2023-02-28T05:47:25;-1.80;99.90
71754;DHT22;59593;51.716;7.016;2023-02-28T05:49:51;-1.80;99.90
71754;DHT22;59593;51.716;7.016;2023-02-28T05:52:17;-1.80;99.90
71754;DHT22;59593;51.716;7.016;2023-02-28T05:54:42;-1.80;99.90
71754;DHT22;59593;51.716;7.016;2023-02-28T05:57:08;-1.90;99.90
71754;DHT22;59593;51.716;7.016;2023-02-28T05:59:34;-1.90;99.90
71754;DHT22;59593;51.716;7.016;2023-02-28T06:01:59;-1.90;99.90
71754;DHT22;59593;51.716;7.016;2023-02-28T06:04:25;-1.90;99.90
71754;DHT22;59593;51.716;7.016;2023-02-28T06:06:51;-1.90;99.90
71754;DHT22;59593;51.716;7.016;2023-02-28T06:09:17;-1.90;99.90
71754;DHT22;59593;51.716;7.016;2023-02-28T06:11:43;-1.90;99.90
71754;DHT22;59593;51.716;7.016;2023-02-28T06:14:15;-1.90;99.90
71754;DHT22;59593;51.716;7.016;2023-02-28T06:16:41;-1.90;99.90
71754;DHT22;59593;51.716;7.016;2023-02-28T06:19:06;-1.90;99.90
71754;DHT22;59593;51.716;7.016;2023-02-28T06:21:32;-1.90;99.90
71754;DHT22;59593;51.716;7.016;2023-02-28T06:23:58;-1.90;99.90
71754;DHT22;59593;51.716;7.016;2023-02-28T06:26:24;-1.90;99.90
71754;DHT22;59593;51.716;7.016;2023-02-28T06:28:49;-1.80;99.90
71754;DHT22;59593;51.716;7.016;2023-02-28T06:31:17;-1.80;99.90
71754;DHT22;59593;51.716;7.016;2023-02-28T06:33:44;-1.80;99.90
71754;DHT22;59593;51.716;7.016;2023-02-28T06:36:11;-1.80;99.90
71754;DHT22;59593;51.716;7.016;2023-02-28T06:38:38;-1.80;99.90
71754;DHT22;59593;51.716;7.016;2023-02-28T06:41:05;-1.80;99.90
71754;DHT22;59593;51.716;7.016;2023-02-28T06:43:33;-1.80;99.90
71754;DHT22;59593;51.716;7.016;2023-02-28T06:46:03;-1.80;99.90
71754;DHT22;59593;51.716;7.016;2023-02-28T06:48:29;-1.70;99.90
71754;DHT22;59593;51.716;7.016;2023-02-28T06:51:09;-1.80;99.90
71754;DHT22;59593;51.716;7.016;2023-02-28T06:53:35;-1.90;99.90
71754;DHT22;59593;51.716;7.016;2023-02-28T06:56:13;-1.80;99.90
71754;DHT22;59593;51.716;7.016;2023-02-28T06:58:39;-1.70;99.90
71754;DHT22;59593;51.716;7.016;2023-02-28T07:01:06;-1.60;99.90
71754;DHT22;59593;51.716;7.016;2023-02-28T07:03:32;-1.60;99.90
71754;DHT22;59593;51.716;7.016;2023-02-28T07:05:59;-1.50;99.90
71754;DHT22;59593;51.716;7.016;2023-02-28T07:08:25;-1.50;99.90
71754;DHT22;59593;51.716;7.016;2023-02-28T07:10:53;-1.40;99.90
71754;DHT22;59593;51.716;7.016;2023-02-28T07:13:19;-1.40;99.90
71754;DHT22;59593;51.716;7.016;2023-02-28T07:15:52;-1.40;99.90
71754;DHT22;59593;51.716;7.016;2023-02-28T07:18:17;-1.40;99.90
71754;DHT22;59593;51.716;7.016;2023-02-28T07:20:43;-1.40;99.90
71754;DHT22;59593;51.716;7.016;2023-02-28T07:23:08;-1.40;99.90
71754;DHT22;59593;51.716;7.016;2023-02-28T07:25:34;-1.30;99.90
71754;DHT22;59593;51.716;7.016;2023-02-28T07:27:59;-1.20;99.90
71754;DHT22;59593;51.716;7.016;2023-02-28T07:30:25;-1.10;99.90
71754;DHT22;59593;51.716;7.016;2023-02-28T07:32:51;-1.00;99.90
71754;DHT22;59593;51.716;7.016;2023-02-28T07:35:16;-0.90;99.90
71754;DHT22;59593;51.716;7.016;2023-02-28T07:37:42;-0.80;99.90
71754;DHT22;59593;51.716;7.016;2023-02-28T07:40:10;-0.60;99.90
71754;DHT22;59593;51.716;7.016;2023-02-28T07:42:41;-0.60;99.90
71754;DHT22;59593;51.716;7.016;2023-02-28T07:45:10;-0.50;99.90
71754;DHT22;59593;51.716;7.016;2023-02-28T07:47:38;-0.40;99.90
71754;DHT22;59593;51.716;7.016;2023-02-28T07:50:05;-0.30;99.90
71754;DHT22;59593;51.716;7.016;2023-02-28T07:52:31;-0.20;99.90
71754;DHT22;59593;51.716;7.016;2023-02-28T07:54:57;0.00;99.90
71754;DHT22;59593;51.716;7.016;2023-02-28T07:57:23;0.10;99.90
71754;DHT22;59593;51.716;7.016;2023-02-28T07:59:49;0.20;99.90
71754;DHT22;59593;51.716;7.016;2023-02-28T08:02:16;0.20;99.90
71754;DHT22;59593;51.716;7.016;2023-02-28T08:04:43;0.40;99.90
71754;DHT22;59593;51.716;7.016;2023-02-28T08:07:09;0.50;99.90
71754;DHT22;59593;51.716;7.016;2023-02-28T08:09:39;0.60;99.90
71754;DHT22;59593;51.716;7.016;2023-02-28T08:12:05;0.70;99.90
71754;DHT22;59593;51.716;7.016;2023-02-28T08:14:31;0.80;99.90
71754;DHT22;59593;51.716;7.016;2023-02-28T08:16:57;0.90;99.90
71754;DHT22;59593;51.716;7.016;2023-02-28T08:19:22;1.00;99.90
71754;DHT22;59593;51.716;7.016;2023-02-28T08:21:48;1.00;99.90
71754;DHT22;59593;51.716;7.016;2023-02-28T08:24:14;1.10;99.90
71754;DHT22;59593;51.716;7.016;2023-02-28T08:26:39;1.20;99.90
71754;DHT22;59593;51.716;7.016;2023-02-28T08:29:05;1.30;99.90
71754;DHT22;59593;51.716;7.016;2023-02-28T08:31:34;1.50;99.90
71754;DHT22;59593;51.716;7.016;2023-02-28T08:34:06;1.60;99.90
71754;DHT22;59593;51.716;7.016;2023-02-28T08:36:31;1.70;99.90
71754;DHT22;59593;51.716;7.016;2023-02-28T08:38:57;1.80;99.90
71754;DHT22;59593;51.716;7.016;2023-02-28T08:41:23;1.90;99.90
71754;DHT22;59593;51.716;7.016;2023-02-28T08:43:49;2.00;99.90
71754;DHT22;59593;51.716;7.016;2023-02-28T08:46:17;2.10;99.90
71754;DHT22;59593;51.716;7.016;2023-02-28T08:48:44;2.20;99.90
71754;DHT22;59593;51.716;7.016;2023-02-28T08:51:20;2.20;99.90
71754;DHT22;59593;51.716;7.016;2023-02-28T08:53:59;2.30;99.90
71754;DHT22;59593;51.716;7.016;2023-02-28T08:56:26;2.40;99.90
71754;DHT22;59593;51.716;7.016;2023-02-28T08:58:54;2.50;99.90
71754;DHT22;59593;51.716;7.016;2023-02-28T09:01:23;2.60;99.90
71754;DHT22;59593;51.716;7.016;2023-02-28T09:03:50;2.60;99.90
71754;DHT22;59593;51.716;7.016;2023-02-28T09:06:18;2.70;99.90
71754;DHT22;59593;51.716;7.016;2023-02-28T09:08:44;2.80;99.90
71754;DHT22;59593;51.716;7.016;2023-02-28T09:11:10;2.90;99.90
71754;DHT22;59593;51.716;7.016;2023-02-28T09:13:37;3.00;99.90
71754;DHT22;59593;51.716;7.016;2023-02-28T09:16:04;3.10;99.90
71754;DHT22;59593;51.716;7.016;2023-02-28T09:18:31;3.10;99.90
71754;DHT22;59593;51.716;7.016;2023-02-28T09:20:57;3.20;99.90
71754;DHT22;59593;51.716;7.016;2023-02-28T09:23:23;3.20;99.90
71754;DHT22;59593;51.716;7.016;2023-02-28T09:25:53;3.30;99.90
71754;DHT22;59593;51.716;7.016;2023-02-28T09:28:19;3.30;99.90
71754;DHT22;59593;51.716;7.016;2023-02-28T09:30:47;3.40;99.90
71754;DHT22;59593;51.716;7.016;2023-02-28T09:33:14;3.50;99.90
71754;DHT22;59593;51.716;7.016;2023-02-28T09:35:39;3.60;99.90
71754;DHT22;59593;51.716;7.016;2023-02-28T09:38:05;3.80;99.90
71754;DHT22;59593;51.716;7.016;2023-02-28T09:41:09;3.70;99.90
71754;DHT22;59593;51.716;7.016;2023-02-28T09:43:32;3.90;99.90
71754;DHT22;59593;51.716;7.016;2023-02-28T09:49:04;4.00;99.90
71754;DHT22;59593;51.716;7.016;2023-02-28T09:51:47;4.10;99.90
71754;DHT22;59593;51.716;7.016;2023-02-28T09:54:23;4.20;99.90
71754;DHT22;59593;51.716;7.016;2023-02-28T09:59:39;4.30;99.90
71754;DHT22;59593;51.716;7.016;2023-02-28T10:05:13;4.40;99.90
71754;DHT22;59593;51.716;7.016;2023-02-28T10:10:43;4.40;99.90
71754;DHT22;59593;51.716;7.016;2023-02-28T10:16:27;4.40;99.90
71754;DHT22;59593;51.716;7.016;2023-02-28T10:19:25;4.30;99.90
71754;DHT22;59593;51.716;7.016;2023-02-28T10:24:49;4.40;99.90
71754;DHT22;59593;51.716;7.016;2023-02-28T10:30:00;4.60;99.90
71754;DHT22;59593;51.716;7.016;2023-02-28T10:32:30;4.70;99.90
71754;DHT22;59593;51.716;7.016;2023-02-28T10:37:37;4.70;99.90
71754;DHT22;59593;51.716;7.016;2023-02-28T10:40:05;4.90;99.90
71754;DHT22;59593;51.716;7.016;2023-02-28T10:42:31;5.10;99.90
71754;DHT22;59593;51.716;7.016;2023-02-28T10:45:12;5.30;99.90
71754;DHT22;59593;51.716;7.016;2023-02-28T10:47:57;5.60;99.90
71754;DHT22;59593;51.716;7.016;2023-02-28T10:53:08;6.00;99.90
71754;DHT22;59593;51.716;7.016;2023-02-28T10:55:40;5.90;99.90
71754;DHT22;59593;51.716;7.016;2023-02-28T10:58:21;6.20;99.90
71754;DHT22;59593;51.716;7.016;2023-02-28T11:00:47;6.40;99.90
71754;DHT22;59593;51.716;7.016;2023-02-28T11:03:28;6.30;99.90
71754;DHT22;59593;51.716;7.016;2023-02-28T11:05:54;6.00;99.90
71754;DHT22;59593;51.716;7.016;2023-02-28T11:08:20;5.50;99.90
71754;DHT22;59593;51.716;7.016;2023-02-28T11:10:47;5.20;99.90
71754;DHT22;59593;51.716;7.016;2023-02-28T11:13:21;5.30;99.90
71754;DHT22;59593;51.716;7.016;2023-02-28T11:15:53;6.10;99.90
71754;DHT22;59593;51.716;7.016;2023-02-28T11:18:24;7.40;99.90
71754;DHT22;59593;51.716;7.016;2023-02-28T11:20:54;7.90;99.90
71754;DHT22;59593;51.716;7.016;2023-02-28T11:23:21;7.60;99.90
71754;DHT22;59593;51.716;7.016;2023-02-28T11:25:55;8.40;99.90
71754;DHT22;59593;51.716;7.016;2023-02-28T11:28:34;8.00;93.20
71754;DHT22;59593;51.716;7.016;2023-02-28T11:33:40;9.00;84.00
71754;DHT22;59593;51.716;7.016;2023-02-28T11:36:15;8.40;86.30
71754;DHT22;59593;51.716;7.016;2023-02-28T11:38:41;8.60;91.60
71754;DHT22;59593;51.716;7.016;2023-02-28T11:44:18;9.30;78.50
71754;DHT22;59593;51.716;7.016;2023-02-28T11:46:58;9.00;85.30
71754;DHT22;59593;51.716;7.016;2023-02-28T11:49:30;9.00;87.80
71754;DHT22;59593;51.716;7.016;2023-02-28T11:52:29;8.50;79.60
71754;DHT22;59593;51.716;7.016;2023-02-28T11:55:16;9.60;76.10
71754;DHT22;59593;51.716;7.016;2023-02-28T12:11:11;10.20;64.70
71754;DHT22;59593;51.716;7.016;2023-02-28T12:19:20;9.00;71.80
71754;DHT22;59593;51.716;7.016;2023-02-28T12:22:10;9.60;73.00
71754;DHT22;59593;51.716;7.016;2023-02-28T12:27:22;9.50;70.50
71754;DHT22;59593;51.716;7.016;2023-02-28T12:30:03;11.30;66.20
71754;DHT22;59593;51.716;7.016;2023-02-28T12:32:41;11.50;62.70
71754;DHT22;59593;51.716;7.016;2023-02-28T12:37:36;10.90;62.00
71754;DHT22;59593;51.716;7.016;2023-02-28T12:40:19;10.20;60.70
71754;DHT22;59593;51.716;7.016;2023-02-28T12:42:51;10.00;63.20
71754;DHT22;59593;51.716;7.016;2023-02-28T12:45:31;9.90;65.30
71754;DHT22;59593;51.716;7.016;2023-02-28T12:48:08;10.50;74.30
71754;DHT22;59593;51.716;7.016;2023-02-28T12:50:34;11.10;59.20
71754;DHT22;59593;51.716;7.016;2023-02-28T12:53:31;11.50;64.00
71754;DHT22;59593;51.716;7.016;2023-02-28T12:58:39;11.90;65.50
71754;DHT22;59593;51.716;7.016;2023-02-28T13:07:06;11.80;61.10
71754;DHT22;59593;51.716;7.016;2023-02-28T13:09:33;12.60;57.30
71754;DHT22;59593;51.716;7.016;2023-02-28T13:11:59;12.40;56.50
71754;DHT22;59593;51.716;7.016;2023-02-28T13:14:43;11.50;56.60
71754;DHT22;59593;51.716;7.016;2023-02-28T13:19:56;10.80;59.50
71754;DHT22;59593;51.716;7.016;2023-02-28T13:24:57;11.00;62.90
71754;DHT22;59593;51.716;7.016;2023-02-28T13:27:33;11.30;61.20
71754;DHT22;59593;51.716;7.016;2023-02-28T13:30:00;11.40;58.20
71754;DHT22;59593;51.716;7.016;2023-02-28T13:32:34;12.20;59.20
71754;DHT22;59593;51.716;7.016;2023-02-28T13:37:34;11.90;58.00
71754;DHT22;59593;51.716;7.016;2023-02-28T13:47:43;12.40;60.00
71754;DHT22;59593;51.716;7.016;2023-02-28T13:53:21;12.30;60.00
71754;DHT22;59593;51.716;7.016;2023-02-28T13:56:07;12.10;58.10
71754;DHT22;59593;51.716;7.016;2023-02-28T14:07:22;11.00;63.60
71754;DHT22;59593;51.716;7.016;2023-02-28T14:09:59;10.90;63.90
71754;DHT22;59593;51.716;7.016;2023-02-28T14:21:36;11.30;71.10
71754;DHT22;59593;51.716;7.016;2023-02-28T14:30:36;11.60;66.90
71754;DHT22;59593;51.716;7.016;2023-02-28T14:37:03;11.90;65.60
71754;DHT22;59593;51.716;7.016;2023-02-28T14:39:54;12.40;60.90
71754;DHT22;59593;51.716;7.016;2023-02-28T14:42:55;12.20;61.10
71754;DHT22;59593;51.716;7.016;2023-02-28T14:45:25;11.30;63.80
71754;DHT22;59593;51.716;7.016;2023-02-28T14:52:00;11.80;68.30
71754;DHT22;59593;51.716;7.016;2023-02-28T14:54:23;12.80;61.30
71754;DHT22;59593;51.716;7.016;2023-02-28T14:57:01;10.70;64.60
71754;DHT22;59593;51.716;7.016;2023-02-28T14:59:56;12.00;67.90
71754;DHT22;59593;51.716;7.016;2023-02-28T15:02:38;12.50;66.10
71754;DHT22;59593;51.716;7.016;2023-02-28T15:07:41;12.90;57.60
71754;DHT22;59593;51.716;7.016;2023-02-28T15:10:27;13.00;62.70
71754;DHT22;59593;51.716;7.016;2023-02-28T15:13:16;13.00;59.40
71754;DHT22;59593;51.716;7.016;2023-02-28T15:18:49;13.10;58.60
71754;DHT22;59593;51.716;7.016;2023-02-28T15:21:19;12.50;63.10
71754;DHT22;59593;51.716;7.016;2023-02-28T15:23:50;12.40;62.10
71754;DHT22;59593;51.716;7.016;2023-02-28T15:26:27;12.10;65.80
71754;DHT22;59593;51.716;7.016;2023-02-28T15:29:21;11.60;65.50
71754;DHT22;59593;51.716;7.016;2023-02-28T15:32:00;12.10;67.00
71754;DHT22;59593;51.716;7.016;2023-02-28T15:34:45;12.20;66.80
71754;DHT22;59593;51.716;7.016;2023-02-28T15:42:37;11.10;72.30
71754;DHT22;59593;51.716;7.016;2023-02-28T15:45:03;11.40;67.90
71754;DHT22;59593;51.716;7.016;2023-02-28T15:50:28;11.60;66.90
71754;DHT22;59593;51.716;7.016;2023-02-28T15:53:13;10.80;70.90
71754;DHT22;59593;51.716;7.016;2023-02-28T15:55:39;10.50;70.90
71754;DHT22;59593;51.716;7.016;2023-02-28T15:58:05;10.50;75.90
71754;DHT22;59593;51.716;7.016;2023-02-28T16:00:43;11.00;77.40
71754;DHT22;59593;51.716;7.016;2023-02-28T16:03:40;11.50;72.00
71754;DHT22;59593;51.716;7.016;2023-02-28T16:06:45;11.40;72.30
71754;DHT22;59593;51.716;7.016;2023-02-28T16:09:23;11.60;71.20
71754;DHT22;59593;51.716;7.016;2023-02-28T16:12:02;11.00;72.80
71754;DHT22;59593;51.716;7.016;2023-02-28T16:14:38;10.60;77.90
71754;DHT22;59593;51.716;7.016;2023-02-28T16:17:25;10.40;79.70
71754;DHT22;59593;51.716;7.016;2023-02-28T16:19:53;10.30;77.30
71754;DHT22;59593;51.716;7.016;2023-02-28T16:22:19;10.00;83.70
71754;DHT22;59593;51.716;7.016;2023-02-28T16:24:45;9.40;88.90
71754;DHT22;59593;51.716;7.016;2023-02-28T16:27:24;9.80;92.90
71754;DHT22;59593;51.716;7.016;2023-02-28T16:29:51;9.50;93.30
71754;DHT22;59593;51.716;7.016;2023-02-28T16:32:17;9.80;90.80
71754;DHT22;59593;51.716;7.016;2023-02-28T16:34:45;9.50;93.90
71754;DHT22;59593;51.716;7.016;2023-02-28T16:37:18;9.30;99.30
71754;DHT22;59593;51.716;7.016;2023-02-28T16:39:49;9.10;97.70
71754;DHT22;59593;51.716;7.016;2023-02-28T16:42:24;8.30;99.90
71754;DHT22;59593;51.716;7.016;2023-02-28T16:44:52;8.30;99.90
71754;DHT22;59593;51.716;7.016;2023-02-28T16:47:18;8.30;99.90
71754;DHT22;59593;51.716;7.016;2023-02-28T16:49:44;8.00;99.90
71754;DHT22;59593;51.716;7.016;2023-02-28T16:52:10;7.30;99.90
71754;DHT22;59593;51.716;7.016;2023-02-28T16:54:39;6.80;99.90
71754;DHT22;59593;51.716;7.016;2023-02-28T16:57:05;6.60;99.90
71754;DHT22;59593;51.716;7.016;2023-02-28T16:59:32;6.40;99.90
71754;DHT22;59593;51.716;7.016;2023-02-28T17:01:58;6.10;99.90
71754;DHT22;59593;51.716;7.016;2023-02-28T17:04:27;5.90;99.90
71754;DHT22;59593;51.716;7.016;2023-02-28T17:06:53;5.80;99.90
71754;DHT22;59593;51.716;7.016;2023-02-28T17:09:21;5.70;99.90
71754;DHT22;59593;51.716;7.016;2023-02-28T17:11:47;5.60;99.90
71754;DHT22;59593;51.716;7.016;2023-02-28T17:14:14;5.50;99.90
71754;DHT22;59593;51.716;7.016;2023-02-28T17:16:40;5.30;99.90
71754;DHT22;59593;51.716;7.016;2023-02-28T17:19:11;5.20;99.90
71754;DHT22;59593;51.716;7.016;2023-02-28T17:21:37;5.10;99.90
71754;DHT22;59593;51.716;7.016;2023-02-28T17:24:04;5.10;99.90
71754;DHT22;59593;51.716;7.016;2023-02-28T17:26:30;5.10;99.90
71754;DHT22;59593;51.716;7.016;2023-02-28T17:28:56;4.90;99.90
71754;DHT22;59593;51.716;7.016;2023-02-28T17:31:24;4.90;99.90
71754;DHT22;59593;51.716;7.016;2023-02-28T17:33:52;4.80;99.90
71754;DHT22;59593;51.716;7.016;2023-02-28T17:36:26;4.70;99.90
71754;DHT22;59593;51.716;7.016;2023-02-28T17:38:53;4.70;99.90
71754;DHT22;59593;51.716;7.016;2023-02-28T17:41:22;4.50;99.90
71754;DHT22;59593;51.716;7.016;2023-02-28T17:43:54;4.40;99.90
71754;DHT22;59593;51.716;7.016;2023-02-28T17:46:24;4.30;99.90
71754;DHT22;59593;51.716;7.016;2023-02-28T17:48:52;4.20;99.90
71754;DHT22;59593;51.716;7.016;2023-02-28T17:51:19;4.20;99.90
71754;DHT22;59593;51.716;7.016;2023-02-28T17:53:45;4.20;99.90
71754;DHT22;59593;51.716;7.016;2023-02-28T17:56:20;4.10;99.90
71754;DHT22;59593;51.716;7.016;2023-02-28T17:58:57;4.00;99.90
71754;DHT22;59593;51.716;7.016;2023-02-28T18:01:24;4.00;99.90
71754;DHT22;59593;51.716;7.016;2023-02-28T18:03:53;3.90;99.90
71754;DHT22;59593;51.716;7.016;2023-02-28T18:06:28;3.90;99.90
71754;DHT22;59593;51.716;7.016;2023-02-28T18:08:56;3.80;99.90
71754;DHT22;59593;51.716;7.016;2023-02-28T18:11:23;3.80;99.90
71754;DHT22;59593;51.716;7.016;2023-02-28T18:13:53;3.70;99.90
71754;DHT22;59593;51.716;7.016;2023-02-28T18:16:22;3.60;99.90
71754;DHT22;59593;51.716;7.016;2023-02-28T18:18:51;3.60;99.90
71754;DHT22;59593;51.716;7.016;2023-02-28T18:21:17;3.50;99.90
71754;DHT22;59593;51.716;7.016;2023-02-28T18:23:44;3.40;99.90
71754;DHT22;59593;51.716;7.016;2023-02-28T18:26:17;3.40;99.90
71754;DHT22;59593;51.716;7.016;2023-02-28T18:28:44;3.30;99.90
71754;DHT22;59593;51.716;7.016;2023-02-28T18:31:15;3.30;99.90
71754;DHT22;59593;51.716;7.016;2023-02-28T18:33:46;3.30;99.90
71754;DHT22;59593;51.716;7.016;2023-02-28T18:36:12;3.30;99.90